createdAt,value
2023-02-14T00:01:13.745Z,1.05
2023-02-14T00:06:33.296Z,1.03
2023-02-14T00:11:51.845Z,1.03
2023-02-14T00:17:10.775Z,0.99
2023-02-14T00:22:29.725Z,0.98
2023-02-14T00:27:49.263Z,0.96
2023-02-14T00:33:08.566Z,0.91
2023-02-14T00:38:28.344Z,0.86
2023-02-14T00:43:48.081Z,0.86
2023-02-14T00:49:07.751Z,0.86
2023-02-14T00:54:27.394Z,0.84
2023-02-14T00:59:46.373Z,0.79
2023-02-14T01:05:05.262Z,0.81
2023-02-14T01:10:24.455Z,0.79
2023-02-14T01:15:43.899Z,0.79
2023-02-14T01:21:02.992Z,0.76
2023-02-14T01:26:20.846Z,0.75
2023-02-14T01:31:40.514Z,0.76
2023-02-14T01:36:59.291Z,0.75
2023-02-14T01:42:18.810Z,0.75
2023-02-14T01:47:38.014Z,0.74
2023-02-14T01:52:56.837Z,0.71
2023-02-14T01:58:15.759Z,0.68
2023-02-14T02:03:35.292Z,0.64
2023-02-14T02:08:54.915Z,0.61
2023-02-14T02:14:13.880Z,0.57
2023-02-14T02:19:32.776Z,0.57
2023-02-14T02:24:52.174Z,0.54
2023-02-14T02:30:11.882Z,0.54
2023-02-14T02:35:30.590Z,0.52
2023-02-14T02:40:50.121Z,0.54
2023-02-14T02:46:09.957Z,0.51
2023-02-14T02:51:29.006Z,0.48
2023-02-14T02:56:48.100Z,0.48
2023-02-14T03:02:06.675Z,0.46
2023-02-14T03:07:25.839Z,0.41
2023-02-14T03:12:44.693Z,0.4
2023-02-14T03:18:04.590Z,0.38
2023-02-14T03:23:23.502Z,0.38
2023-02-14T03:28:42.772Z,0.4
2023-02-14T03:34:02.433Z,0.4
2023-02-14T03:39:21.886Z,0.41
2023-02-14T03:44:41.348Z,0.47
2023-02-14T03:50:00.505Z,0.52
2023-02-14T03:55:19.362Z,0.54
2023-02-14T04:00:38.498Z,0.57
2023-02-14T04:05:58.272Z,0.6
2023-02-14T04:11:17.835Z,0.62
2023-02-14T04:16:37.427Z,0.67
2023-02-14T04:21:57.134Z,0.64
2023-02-14T04:27:16.839Z,0.64
2023-02-14T04:32:35.936Z,0.65
2023-02-14T04:37:54.990Z,0.62
2023-02-14T04:43:13.946Z,0.62
2023-02-14T04:48:32.853Z,0.64
2023-02-14T04:53:51.812Z,0.62
2023-02-14T04:59:11.293Z,0.62
2023-02-14T05:04:30.134Z,0.67
2023-02-14T05:09:49.514Z,0.65
2023-02-14T05:15:09.279Z,0.64
2023-02-14T05:20:28.523Z,0.67
2023-02-14T05:25:47.740Z,0.68
2023-02-14T05:31:07.293Z,0.68
2023-02-14T05:36:26.274Z,0.69
2023-02-14T05:41:45.403Z,0.68
2023-02-14T05:47:04.815Z,0.67
2023-02-14T05:52:24.792Z,0.67
2023-02-14T05:57:44.073Z,0.65
2023-02-14T06:03:03.684Z,0.64
2023-02-14T06:08:22.785Z,0.64
2023-02-14T06:13:41.974Z,0.61
2023-02-14T06:19:01.665Z,0.6
2023-02-14T06:25:35.865Z,0.6
2023-02-14T06:29:52.641Z,0.6
2023-02-14T06:34:59.889Z,0.64
2023-02-14T06:40:18.962Z,0.64
2023-02-14T06:45:38.469Z,0.65
2023-02-14T06:50:58.509Z,0.65
2023-02-14T06:56:17.115Z,0.62
2023-02-14T07:01:35.836Z,0.62
2023-02-14T07:06:54.662Z,0.62
2023-02-14T07:12:13.622Z,0.6
2023-02-14T07:17:32.713Z,0.62
2023-02-14T07:22:52.489Z,0.62
2023-02-14T07:28:11.823Z,0.64
2023-02-14T07:33:31.539Z,0.65
2023-02-14T07:38:50.459Z,0.67
2023-02-14T07:44:09.585Z,0.67
2023-02-14T07:49:28.427Z,0.65
2023-02-14T07:54:47.497Z,0.67
2023-02-14T08:00:07.013Z,0.67
2023-02-14T08:05:26.701Z,0.67
2023-02-14T08:10:46.439Z,0.65
2023-02-14T08:16:05.632Z,0.64
2023-02-14T08:21:24.338Z,0.64
2023-02-14T08:26:43.384Z,0.72
2023-02-14T08:32:02.349Z,0.76
2023-02-14T08:37:21.769Z,0.78
2023-02-14T08:42:39.522Z,0.78
2023-02-14T08:47:58.256Z,0.75
2023-02-14T08:53:17.165Z,0.81
2023-02-14T08:58:36.149Z,0.82
2023-02-14T09:03:55.626Z,0.89
2023-02-14T09:09:14.439Z,0.88
2023-02-14T09:14:33.822Z,0.92
2023-02-14T09:19:53.513Z,0.98
2023-02-14T09:25:12.861Z,1.02
2023-02-14T09:30:32.552Z,1.02
2023-02-14T09:35:51.392Z,1.09
2023-02-14T09:41:10.759Z,1.2
2023-02-14T09:46:30.408Z,1.25
2023-02-14T09:51:49.452Z,1.25
2023-02-14T09:57:09.058Z,1.32
2023-02-14T10:02:28.526Z,1.36
2023-02-14T10:07:47.544Z,1.42
2023-02-14T10:13:07.320Z,1.5
2023-02-14T10:18:26.820Z,1.43
2023-02-14T10:23:46.039Z,1.63
2023-02-14T10:29:05.491Z,1.68
2023-02-14T10:34:24.399Z,1.73
2023-02-14T10:39:43.302Z,1.77
2023-02-14T10:45:02.250Z,1.87
2023-02-14T10:50:21.097Z,1.82
2023-02-14T10:55:40.068Z,1.91
2023-02-14T11:01:00.489Z,2.05
2023-02-14T11:06:19.900Z,2.08
2023-02-14T11:11:38.975Z,2.16
2023-02-14T11:16:58.796Z,2.33
2023-02-14T11:22:18.090Z,2.32
2023-02-14T11:27:37.767Z,2.33
2023-02-14T11:32:55.939Z,2.46
2023-02-14T11:38:15.552Z,2.47
2023-02-14T11:43:34.663Z,2.61
2023-02-14T11:48:54.912Z,2.72
2023-02-14T11:54:14.061Z,2.8
2023-02-14T12:00:48.269Z,2.84
2023-02-14T12:04:53.598Z,3
2023-02-14T12:10:13.068Z,3.15
2023-02-14T12:15:32.473Z,3.09
2023-02-14T12:20:51.820Z,3.28
2023-02-14T12:26:11.133Z,3.34
2023-02-14T12:31:30.617Z,3.38
2023-02-14T12:40:03.616Z,3.66
2023-02-14T12:42:08.765Z,3.82
2023-02-14T12:52:46.620Z,3.79
2023-02-14T13:01:24.647Z,3.77
2023-02-14T13:03:25.437Z,3.76
2023-02-14T13:08:44.533Z,3.86
2023-02-14T13:14:03.315Z,4.19
2023-02-14T13:19:23.003Z,4.23
2023-02-14T13:24:42.219Z,4.17
2023-02-14T13:30:11.482Z,4.42
2023-02-14T13:35:19.917Z,4.57
2023-02-14T13:40:38.709Z,4.65
2023-02-14T13:45:58.168Z,4.94
2023-02-14T13:51:17.714Z,4.98
2023-02-14T13:56:37.301Z,4.92
2023-02-14T14:01:56.632Z,5.09
2023-02-14T14:07:16.048Z,5.06
2023-02-14T14:12:35.418Z,5.07
2023-02-14T14:17:54.551Z,4.98
2023-02-14T14:23:13.318Z,4.98
2023-02-14T14:28:32.169Z,4.92
2023-02-14T14:33:51.399Z,4.94
2023-02-14T14:39:10.670Z,5.07
2023-02-14T14:44:30.360Z,5.12
2023-02-14T14:49:50.046Z,5
2023-02-14T14:55:09.764Z,5.01
2023-02-14T15:00:29.284Z,5
2023-02-14T15:05:47.465Z,4.94
2023-02-14T15:11:06.481Z,4.85
2023-02-14T15:16:25.775Z,4.65
2023-02-14T15:21:44.863Z,4.55
2023-02-14T15:27:04.188Z,4.46
2023-02-14T15:32:24.346Z,4.3
2023-02-14T15:37:43.708Z,4.21
2023-02-14T15:43:03.119Z,4.14
2023-02-14T15:48:22.564Z,4
2023-02-14T15:53:41.629Z,3.9
2023-02-14T15:59:00.788Z,3.75
2023-02-14T16:04:20.427Z,3.75
2023-02-14T16:09:39.247Z,3.72
2023-02-14T16:14:58.749Z,3.68
2023-02-14T16:20:18.182Z,3.69
2023-02-14T16:25:37.167Z,3.68
2023-02-14T16:26:03.269Z,3.83
2023-02-14T16:31:22.749Z,3.63
2023-02-14T16:36:41.918Z,3.59
2023-02-14T16:42:01.393Z,3.58
2023-02-14T16:47:20.262Z,3.54
2023-02-14T16:52:39.864Z,3.42
2023-02-14T16:57:58.694Z,3.35
2023-02-14T17:03:17.809Z,3.27
2023-02-14T17:08:37.309Z,3.19
2023-02-14T17:13:56.937Z,3.09
2023-02-14T17:19:16.200Z,3
2023-02-14T17:24:35.630Z,2.94
2023-02-14T17:29:54.838Z,2.91
2023-02-14T17:35:13.668Z,2.88
2023-02-14T17:40:32.867Z,2.84
2023-02-14T17:45:51.467Z,2.75
2023-02-14T17:51:10.571Z,2.7
2023-02-14T17:56:29.769Z,2.67
2023-02-14T18:01:48.673Z,2.66
2023-02-14T18:07:08.265Z,2.68
2023-02-14T18:12:27.810Z,2.76
2023-02-14T18:17:46.789Z,2.81
2023-02-14T18:23:06.004Z,2.84
2023-02-14T18:28:25.438Z,2.83
2023-02-14T18:33:45.128Z,2.8
2023-02-14T18:39:04.356Z,2.8
2023-02-14T18:44:23.276Z,2.81
2023-02-14T18:49:43.588Z,2.8
2023-02-14T18:55:03.394Z,2.77
2023-02-14T19:00:23.075Z,2.76
2023-02-14T19:06:57.215Z,2.77
2023-02-14T19:11:02.936Z,2.77
2023-02-14T19:16:20.399Z,2.79
2023-02-14T19:21:39.720Z,2.8
2023-02-14T19:26:58.876Z,2.84
2023-02-14T19:32:17.970Z,2.81
2023-02-14T19:37:37.381Z,2.86
2023-02-14T19:42:56.326Z,2.86
2023-02-14T19:48:15.995Z,2.81
2023-02-14T19:53:35.185Z,2.83
2023-02-14T19:58:54.219Z,2.81
2023-02-14T20:04:13.883Z,2.8
2023-02-14T20:09:32.940Z,2.8
2023-02-14T20:14:52.525Z,2.73
2023-02-14T20:20:11.972Z,2.68
2023-02-14T20:25:30.898Z,2.61
2023-02-14T20:30:49.870Z,2.57
2023-02-14T20:36:09.495Z,2.47
2023-02-14T20:41:29.168Z,2.43
2023-02-14T20:46:48.382Z,2.4
2023-02-14T20:52:07.841Z,2.36
2023-02-14T20:57:26.483Z,2.3
2023-02-14T21:02:45.306Z,2.32
2023-02-14T21:08:04.134Z,2.34
2023-02-14T21:13:23.525Z,2.35
2023-02-14T21:18:43.908Z,2.32
2023-02-14T21:24:03.372Z,2.25
2023-02-14T21:29:23.109Z,2.11
2023-02-14T21:34:42.666Z,1.97
2023-02-14T21:40:01.902Z,1.85
2023-02-14T21:45:20.812Z,1.78
2023-02-14T21:50:40.101Z,1.68
2023-02-14T21:55:59.495Z,1.58
2023-02-14T22:01:18.995Z,1.46
2023-02-14T22:06:38.509Z,1.35
2023-02-14T22:11:57.884Z,1.3
2023-02-14T22:17:17.036Z,1.27
2023-02-14T22:22:36.172Z,1.27
2023-02-14T22:27:55.348Z,1.22
2023-02-14T22:33:15.114Z,1.1
2023-02-14T22:38:34.056Z,1.04
2023-02-14T22:43:53.380Z,1
2023-02-14T22:49:12.831Z,0.92
2023-02-14T22:54:31.619Z,0.85
2023-02-14T22:59:50.576Z,0.82
2023-02-14T23:05:09.015Z,0.78
2023-02-14T23:10:29.228Z,0.74
2023-02-14T23:15:48.751Z,0.72
2023-02-14T23:21:08.409Z,0.61
2023-02-14T23:26:27.271Z,0.57
2023-02-14T23:31:46.838Z,0.54
2023-02-14T23:37:05.851Z,0.51
2023-02-14T23:42:25.310Z,0.51
2023-02-14T23:47:44.940Z,0.51
2023-02-14T23:53:04.261Z,0.5
2023-02-14T23:58:23.213Z,0.46
